Floris, IA (52560)

23:17 CDT le 01 septembre 2014 (GMT -0500)
South | Change Station
CLOSE
Current Station
Stations météorologiques personnelles
Location: Ottumwa, IA
Altitude: 640 ft
Stations météo à proximité

Alt. 640 ft 41.01 °N, 92.42 °W | Updated 8 seconds ago

Nuageux
Nuageux
69.1 ° F
Paraît 69.1 ° F
N
0.1
Vent Variable Vent de Ouest
Gusts 0.0 mph

Aujourd'hui
Haut(e) -- | Bas -- ° F
--% Risque de précip.
Hier
Haut(e) -- | Bas -- ° F
Precip. -- pouce
6:36 AM 7:41 PM
Lune montante, 47% visible
Pression 29.84 pouce
Visibilité 10.0 Miles terrestres
Nuages Ciel dégagé
Point de rosée 67 ° F
Humidité 94%
Précipitations 0.86 pouce
Profondeur de la couche neigeuse Non disponible.
UV 0 sur 12
Pollen 5.60 sur 12
Qualité de l'air Non disponible.
Flu Activity Non disponible.
METAR KOTM 020353Z AUTO 19005KT 10SM CLR 20/18 A2986 RMK AO2 RAB14E32 SLP104 P0000 T02000183

More Conditions Fewer Conditions

Pression 29.84 pouce
Visibilité 10.0 Miles terrestres
Nuages Ciel dégagé
Point de rosée 67 ° F
Humidité 94%
Précipitations 0.86 pouce
Profondeur de la couche neigeuse Non disponible.
UV 0 sur 12
Pollen 5.60 sur 12
Qualité de l'air Non disponible.
Flu Activity Non disponible.
METAR KOTM 020353Z AUTO 19005KT 10SM CLR 20/18 A2986 RMK AO2 RAB14E32 SLP104 P0000 T02000183

More Conditions Fewer Conditions

10-Day Weather Forecast

Almanac

Astronomie

Sep. 01, 2014 Lever Coucher
Temps réel 06:36 CDT 19:41 CDT
Crépuscule civil 06:07 CDT 20:09 CDT
Crépuscule nautique 05:34 CDT 20:43 CDT
Crépuscule astronomique 04:59 CDT 21:18 CDT
Lune 13:24 CDT (9/1) 23:40 CDT (9/1)
Durée de lumière visible 14h 01m
Longueur du jour
13h 05m
Tomorrow will be 2m 37s shorter.
Lune montante, 47% of the Moon is Illuminated
Sep 2
Lune montante
Sep 2
Premier quartier
Sep 8
Pleine lune
Sep 15
Dernier quartier
Sep 24
Nouveau

Extrêmes aujourd'hui

State Highs State Lows

Community

WunderPhotos

Upload Photos

1,749,560 Photos téléchargées !

WunderBlogs® & News

Nearby

Épaisseur de neige

Station Depth Altitude
Pas de nouvelles chutes de neige

Activité sismique

Ville Distance Mag. Time & Date
No recent earthquake activity has been reported nearby.
Minimum magnitude displayed is 2.5.

Températures des eaux côtières

Lieu Température
Aucun rapport de station

Stations météo à proximité